sensor_id;sensor_type;location;lat;lon;timestamp;pressure;altitude;pressure_sealevel;temperature;humidity
71344;BME280;59146;43.850;25.948;2023-09-07T00:01:56;101681.22;;;21.03;46.23
71344;BME280;59146;43.850;25.948;2023-09-07T00:04:21;101630.13;;;20.69;46.36
71344;BME280;59146;43.850;25.948;2023-09-07T00:06:48;101692.16;;;21.09;46.00
71344;BME280;59146;43.850;25.948;2023-09-07T00:09:15;101659.03;;;20.93;45.93
71344;BME280;59146;43.850;25.948;2023-09-07T00:11:43;101643.13;;;20.72;46.24
71344;BME280;59146;43.850;25.948;2023-09-07T00:14:09;101645.06;;;20.70;46.24
71344;BME280;59146;43.850;25.948;2023-09-07T00:16:34;101637.28;;;20.57;46.50
71344;BME280;59146;43.850;25.948;2023-09-07T00:19:01;101666.78;;;20.75;46.69
71344;BME280;59146;43.850;25.948;2023-09-07T00:21:27;101607.34;;;20.25;46.37
71344;BME280;59146;43.850;25.948;2023-09-07T00:23:53;101607.19;;;20.27;46.74
71344;BME280;59146;43.850;25.948;2023-09-07T00:26:20;101670.84;;;20.58;46.72
71344;BME280;59146;43.850;25.948;2023-09-07T00:28:45;101648.63;;;20.39;46.84
71344;BME280;59146;43.850;25.948;2023-09-07T00:31:11;101641.69;;;20.27;46.62
71344;BME280;59146;43.850;25.948;2023-09-07T00:33:36;101685.88;;;20.48;46.63
71344;BME280;59146;43.850;25.948;2023-09-07T00:36:02;101686.81;;;20.47;46.89
71344;BME280;59146;43.850;25.948;2023-09-07T00:38:28;101661.88;;;20.39;46.75
71344;BME280;59146;43.850;25.948;2023-09-07T00:40:54;101687.66;;;20.48;46.95
71344;BME280;59146;43.850;25.948;2023-09-07T00:43:19;101631.94;;;20.16;46.66
71344;BME280;59146;43.850;25.948;2023-09-07T00:45:45;101657.13;;;20.22;47.12
71344;BME280;59146;43.850;25.948;2023-09-07T00:48:12;101660.97;;;20.18;46.78
71344;BME280;59146;43.850;25.948;2023-09-07T00:50:38;101579.13;;;19.81;46.83
71344;BME280;59146;43.850;25.948;2023-09-07T00:53:04;101663.63;;;20.29;46.99
71344;BME280;59146;43.850;25.948;2023-09-07T00:55:32;101617.72;;;19.86;46.98
71344;BME280;59146;43.850;25.948;2023-09-07T00:58:00;101656.53;;;20.18;46.45
71344;BME280;59146;43.850;25.948;2023-09-07T01:00:26;101678.56;;;20.30;46.98
71344;BME280;59146;43.850;25.948;2023-09-07T01:02:52;101661.72;;;20.20;46.85
71344;BME280;59146;43.850;25.948;2023-09-07T01:05:17;101688.28;;;20.40;46.58
71344;BME280;59146;43.850;25.948;2023-09-07T01:07:47;101667.00;;;20.31;46.87
71344;BME280;59146;43.850;25.948;2023-09-07T01:10:13;101678.91;;;20.36;46.37
71344;BME280;59146;43.850;25.948;2023-09-07T01:12:40;101664.47;;;20.29;46.75
71344;BME280;59146;43.850;25.948;2023-09-07T01:15:06;101673.72;;;20.35;46.88
71344;BME280;59146;43.850;25.948;2023-09-07T01:17:33;101640.13;;;20.13;46.40
71344;BME280;59146;43.850;25.948;2023-09-07T01:20:04;101596.97;;;19.79;46.73
71344;BME280;59146;43.850;25.948;2023-09-07T01:22:35;101604.56;;;19.84;46.98
71344;BME280;59146;43.850;25.948;2023-09-07T01:25:02;101601.47;;;19.68;47.33
71344;BME280;59146;43.850;25.948;2023-09-07T01:27:28;101648.38;;;19.99;47.42
71344;BME280;59146;43.850;25.948;2023-09-07T01:29:53;101630.22;;;19.83;47.25
71344;BME280;59146;43.850;25.948;2023-09-07T01:32:19;101682.00;;;20.10;47.48
71344;BME280;59146;43.850;25.948;2023-09-07T01:34:44;101563.38;;;19.37;47.53
71344;BME280;59146;43.850;25.948;2023-09-07T01:37:10;101650.19;;;19.99;47.65
71344;BME280;59146;43.850;25.948;2023-09-07T01:39:35;101624.47;;;19.78;47.40
71344;BME280;59146;43.850;25.948;2023-09-07T01:42:00;101662.28;;;19.92;48.26
71344;BME280;59146;43.850;25.948;2023-09-07T01:44:26;101616.66;;;19.66;47.45
71344;BME280;59146;43.850;25.948;2023-09-07T01:46:52;101672.72;;;20.04;47.89
71344;BME280;59146;43.850;25.948;2023-09-07T01:49:17;101588.16;;;19.58;48.03
71344;BME280;59146;43.850;25.948;2023-09-07T01:51:43;101618.97;;;19.59;47.99
71344;BME280;59146;43.850;25.948;2023-09-07T01:54:08;101641.22;;;19.79;47.93
71344;BME280;59146;43.850;25.948;2023-09-07T01:56:35;101618.84;;;19.61;48.14
71344;BME280;59146;43.850;25.948;2023-09-07T01:59:00;101660.94;;;19.86;48.44
71344;BME280;59146;43.850;25.948;2023-09-07T02:01:27;101615.13;;;19.52;47.94
71344;BME280;59146;43.850;25.948;2023-09-07T02:03:54;101654.13;;;19.72;48.14
71344;BME280;59146;43.850;25.948;2023-09-07T02:06:20;101678.44;;;19.89;48.14
71344;BME280;59146;43.850;25.948;2023-09-07T02:08:45;101659.28;;;19.74;47.87
71344;BME280;59146;43.850;25.948;2023-09-07T02:11:11;101644.53;;;19.60;48.21
71344;BME280;59146;43.850;25.948;2023-09-07T02:13:36;101620.19;;;19.44;48.20
71344;BME280;59146;43.850;25.948;2023-09-07T02:16:05;101665.19;;;19.77;48.48
71344;BME280;59146;43.850;25.948;2023-09-07T02:18:32;101561.94;;;19.11;48.30
71344;BME280;59146;43.850;25.948;2023-09-07T02:21:05;101679.56;;;19.75;48.60
71344;BME280;59146;43.850;25.948;2023-09-07T02:23:31;101614.44;;;19.39;49.03
71344;BME280;59146;43.850;25.948;2023-09-07T02:25:57;101682.56;;;19.59;49.13
71344;BME280;59146;43.850;25.948;2023-09-07T02:28:23;101613.56;;;19.28;49.07
71344;BME280;59146;43.850;25.948;2023-09-07T02:30:49;101605.59;;;19.17;48.98
71344;BME280;59146;43.850;25.948;2023-09-07T02:33:14;101657.78;;;19.38;49.29
71344;BME280;59146;43.850;25.948;2023-09-07T02:35:40;101644.13;;;19.32;49.32
71344;BME280;59146;43.850;25.948;2023-09-07T02:38:05;101668.72;;;19.45;49.63
71344;BME280;59146;43.850;25.948;2023-09-07T02:40:31;101674.38;;;19.40;49.43
71344;BME280;59146;43.850;25.948;2023-09-07T02:42:56;101682.34;;;19.40;49.43
71344;BME280;59146;43.850;25.948;2023-09-07T02:45:22;101655.56;;;19.32;49.80
71344;BME280;59146;43.850;25.948;2023-09-07T02:47:47;101695.00;;;19.37;50.02
71344;BME280;59146;43.850;25.948;2023-09-07T02:50:16;101666.88;;;19.23;49.92
71344;BME280;59146;43.850;25.948;2023-09-07T02:52:43;101613.44;;;18.85;50.25
71344;BME280;59146;43.850;25.948;2023-09-07T02:55:08;101643.53;;;19.06;49.88
71344;BME280;59146;43.850;25.948;2023-09-07T02:57:35;101683.03;;;19.20;50.20
71344;BME280;59146;43.850;25.948;2023-09-07T03:00:00;101679.41;;;19.21;50.13
71344;BME280;59146;43.850;25.948;2023-09-07T03:02:27;101652.09;;;19.10;50.13
71344;BME280;59146;43.850;25.948;2023-09-07T03:04:53;101649.56;;;18.97;50.35
71344;BME280;59146;43.850;25.948;2023-09-07T03:07:20;101665.44;;;19.19;50.02
71344;BME280;59146;43.850;25.948;2023-09-07T03:09:45;101675.09;;;19.20;50.23
71344;BME280;59146;43.850;25.948;2023-09-07T03:12:11;101655.69;;;18.97;50.02
71344;BME280;59146;43.850;25.948;2023-09-07T03:14:36;101661.81;;;18.98;50.30
71344;BME280;59146;43.850;25.948;2023-09-07T03:17:02;101651.00;;;19.01;50.08
71344;BME280;59146;43.850;25.948;2023-09-07T03:19:28;101606.19;;;18.65;50.17
71344;BME280;59146;43.850;25.948;2023-09-07T03:21:54;101627.59;;;18.73;50.17
71344;BME280;59146;43.850;25.948;2023-09-07T03:24:19;101666.72;;;18.91;50.42
71344;BME280;59146;43.850;25.948;2023-09-07T03:26:45;101656.25;;;18.79;50.70
71344;BME280;59146;43.850;25.948;2023-09-07T03:29:11;101632.44;;;18.68;50.66
71344;BME280;59146;43.850;25.948;2023-09-07T03:31:36;101652.28;;;18.73;50.76
71344;BME280;59146;43.850;25.948;2023-09-07T03:34:02;101626.75;;;18.61;50.78
71344;BME280;59146;43.850;25.948;2023-09-07T03:36:27;101603.97;;;18.48;50.57
71344;BME280;59146;43.850;25.948;2023-09-07T03:38:53;101604.81;;;18.48;50.57
71344;BME280;59146;43.850;25.948;2023-09-07T03:41:18;101696.09;;;18.88;50.70
71344;BME280;59146;43.850;25.948;2023-09-07T03:43:43;101680.91;;;18.79;50.83
71344;BME280;59146;43.850;25.948;2023-09-07T03:46:09;101656.97;;;18.70;50.87
71344;BME280;59146;43.850;25.948;2023-09-07T03:48:35;101705.50;;;18.92;50.88
71344;BME280;59146;43.850;25.948;2023-09-07T03:51:00;101646.47;;;18.57;50.76
71344;BME280;59146;43.850;25.948;2023-09-07T03:53:25;101676.44;;;18.69;50.76
71344;BME280;59146;43.850;25.948;2023-09-07T03:55:51;101720.19;;;18.96;50.88
71344;BME280;59146;43.850;25.948;2023-09-07T03:58:16;101678.47;;;18.65;51.20
71344;BME280;59146;43.850;25.948;2023-09-07T04:00:42;101672.13;;;18.79;50.85
71344;BME280;59146;43.850;25.948;2023-09-07T04:03:08;101687.44;;;18.86;50.65
71344;BME280;59146;43.850;25.948;2023-09-07T04:05:33;101693.22;;;18.91;50.74
71344;BME280;59146;43.850;25.948;2023-09-07T04:07:59;101730.50;;;19.67;49.18
71344;BME280;59146;43.850;25.948;2023-09-07T04:10:26;101745.88;;;20.18;48.11
71344;BME280;59146;43.850;25.948;2023-09-07T04:12:51;101682.84;;;19.45;48.68
71344;BME280;59146;43.850;25.948;2023-09-07T04:15:17;101696.03;;;19.23;49.81
71344;BME280;59146;43.850;25.948;2023-09-07T04:17:42;101674.34;;;19.07;50.13
71344;BME280;59146;43.850;25.948;2023-09-07T04:20:08;101675.31;;;18.95;50.46
71344;BME280;59146;43.850;25.948;2023-09-07T04:22:35;101741.81;;;19.36;50.54
71344;BME280;59146;43.850;25.948;2023-09-07T04:25:01;101692.66;;;19.10;50.47
71344;BME280;59146;43.850;25.948;2023-09-07T04:27:26;101683.00;;;18.98;50.86
71344;BME280;59146;43.850;25.948;2023-09-07T04:29:52;101735.28;;;19.29;50.68
71344;BME280;59146;43.850;25.948;2023-09-07T04:32:18;101731.19;;;19.14;50.95
71344;BME280;59146;43.850;25.948;2023-09-07T04:34:44;101587.34;;;18.35;51.04
71344;BME280;59146;43.850;25.948;2023-09-07T04:37:09;101666.13;;;18.88;50.72
71344;BME280;59146;43.850;25.948;2023-09-07T04:39:35;101710.22;;;19.11;50.78
71344;BME280;59146;43.850;25.948;2023-09-07T04:42:00;101687.38;;;19.10;50.63
71344;BME280;59146;43.850;25.948;2023-09-07T04:44:26;101734.59;;;19.38;50.69
71344;BME280;59146;43.850;25.948;2023-09-07T04:46:55;101718.44;;;19.30;50.67
71344;BME280;59146;43.850;25.948;2023-09-07T04:49:21;101692.56;;;19.23;50.36
71344;BME280;59146;43.850;25.948;2023-09-07T04:51:47;101675.78;;;19.00;50.35
71344;BME280;59146;43.850;25.948;2023-09-07T04:54:13;101752.31;;;19.49;50.44
71344;BME280;59146;43.850;25.948;2023-09-07T04:56:39;101657.34;;;19.87;48.28
71344;BME280;59146;43.850;25.948;2023-09-07T04:59:04;101733.41;;;22.04;44.04
71344;BME280;59146;43.850;25.948;2023-09-07T05:01:29;101713.31;;;23.43;40.72
71344;BME280;59146;43.850;25.948;2023-09-07T05:03:56;101749.81;;;24.95;37.90
71344;BME280;59146;43.850;25.948;2023-09-07T05:06:21;101745.84;;;24.99;37.24
71344;BME280;59146;43.850;25.948;2023-09-07T05:08:48;101707.44;;;25.00;37.01
71344;BME280;59146;43.850;25.948;2023-09-07T05:11:13;101734.53;;;25.98;35.50
71344;BME280;59146;43.850;25.948;2023-09-07T05:13:39;101702.81;;;26.11;34.59
71344;BME280;59146;43.850;25.948;2023-09-07T05:16:04;101766.56;;;26.98;33.46
71344;BME280;59146;43.850;25.948;2023-09-07T05:18:30;101721.41;;;26.21;34.40
71344;BME280;59146;43.850;25.948;2023-09-07T05:20:55;101731.13;;;26.22;34.44
71344;BME280;59146;43.850;25.948;2023-09-07T05:23:22;101717.75;;;26.30;34.24
71344;BME280;59146;43.850;25.948;2023-09-07T05:25:49;101770.56;;;26.94;33.86
71344;BME280;59146;43.850;25.948;2023-09-07T05:28:17;101709.28;;;26.00;34.45
71344;BME280;59146;43.850;25.948;2023-09-07T05:30:42;101721.53;;;25.61;34.92
71344;BME280;59146;43.850;25.948;2023-09-07T05:33:15;101750.72;;;24.78;36.62
71344;BME280;59146;43.850;25.948;2023-09-07T05:35:41;101743.16;;;24.99;36.53
71344;BME280;59146;43.850;25.948;2023-09-07T05:38:08;101765.56;;;24.63;37.30
71344;BME280;59146;43.850;25.948;2023-09-07T05:40:37;101759.47;;;24.88;36.91
71344;BME280;59146;43.850;25.948;2023-09-07T05:43:03;101743.66;;;24.41;37.26
71344;BME280;59146;43.850;25.948;2023-09-07T05:45:43;101755.16;;;24.24;38.04
71344;BME280;59146;43.850;25.948;2023-09-07T05:48:09;101732.44;;;24.56;37.07
71344;BME280;59146;43.850;25.948;2023-09-07T05:50:37;101759.69;;;24.94;36.75
71344;BME280;59146;43.850;25.948;2023-09-07T05:53:03;101802.34;;;24.69;36.68
71344;BME280;59146;43.850;25.948;2023-09-07T05:55:29;101691.63;;;23.83;37.54
71344;BME280;59146;43.850;25.948;2023-09-07T05:57:55;101780.06;;;23.88;38.40
71344;BME280;59146;43.850;25.948;2023-09-07T06:00:21;101707.41;;;22.94;39.26
71344;BME280;59146;43.850;25.948;2023-09-07T06:02:48;101780.50;;;23.47;39.31
71344;BME280;59146;43.850;25.948;2023-09-07T06:05:14;101755.59;;;23.00;39.95
71344;BME280;59146;43.850;25.948;2023-09-07T06:07:40;101739.81;;;22.70;40.30
71344;BME280;59146;43.850;25.948;2023-09-07T06:10:05;101759.97;;;22.91;40.90
71344;BME280;59146;43.850;25.948;2023-09-07T06:12:32;101720.28;;;22.79;40.62
71344;BME280;59146;43.850;25.948;2023-09-07T06:14:59;101776.09;;;22.71;41.30
71344;BME280;59146;43.850;25.948;2023-09-07T06:17:24;101743.69;;;22.56;41.61
71344;BME280;59146;43.850;25.948;2023-09-07T06:19:49;101753.38;;;22.86;40.51
71344;BME280;59146;43.850;25.948;2023-09-07T06:22:15;101736.31;;;22.60;40.95
71344;BME280;59146;43.850;25.948;2023-09-07T06:24:40;101772.13;;;23.32;39.88
71344;BME280;59146;43.850;25.948;2023-09-07T06:27:06;101771.81;;;23.45;39.61
71344;BME280;59146;43.850;25.948;2023-09-07T06:29:31;101766.09;;;23.67;38.95
71344;BME280;59146;43.850;25.948;2023-09-07T06:31:56;101716.84;;;23.34;38.59
71344;BME280;59146;43.850;25.948;2023-09-07T06:34:23;101729.72;;;23.76;38.38
71344;BME280;59146;43.850;25.948;2023-09-07T06:36:49;101807.56;;;24.53;37.17
71344;BME280;59146;43.850;25.948;2023-09-07T06:39:14;101801.47;;;24.78;37.21
71344;BME280;59146;43.850;25.948;2023-09-07T06:41:40;101767.53;;;23.71;38.13
71344;BME280;59146;43.850;25.948;2023-09-07T06:44:05;101817.31;;;23.34;39.27
71344;BME280;59146;43.850;25.948;2023-09-07T06:46:31;101743.31;;;22.61;40.52
71344;BME280;59146;43.850;25.948;2023-09-07T06:48:56;101761.94;;;22.80;40.56
71344;BME280;59146;43.850;25.948;2023-09-07T06:51:21;101750.72;;;22.96;40.18
71344;BME280;59146;43.850;25.948;2023-09-07T06:53:47;101759.25;;;23.09;40.04
71344;BME280;59146;43.850;25.948;2023-09-07T06:56:12;101758.53;;;23.07;39.79
71344;BME280;59146;43.850;25.948;2023-09-07T06:58:38;101797.19;;;23.58;39.37
71344;BME280;59146;43.850;25.948;2023-09-07T07:01:03;101783.13;;;23.93;38.65
71344;BME280;59146;43.850;25.948;2023-09-07T07:03:30;101792.06;;;24.11;38.21
71344;BME280;59146;43.850;25.948;2023-09-07T07:05:56;101749.09;;;24.50;37.19
71344;BME280;59146;43.850;25.948;2023-09-07T07:08:22;101769.44;;;25.03;36.45
71344;BME280;59146;43.850;25.948;2023-09-07T07:10:48;101794.44;;;24.94;36.68
71344;BME280;59146;43.850;25.948;2023-09-07T07:13:13;101783.06;;;25.18;36.42
71344;BME280;59146;43.850;25.948;2023-09-07T07:15:39;101801.72;;;25.10;36.39
71344;BME280;59146;43.850;25.948;2023-09-07T07:18:04;101795.13;;;25.22;36.57
71344;BME280;59146;43.850;25.948;2023-09-07T07:20:42;101748.03;;;25.21;35.76
71344;BME280;59146;43.850;25.948;2023-09-07T07:23:08;101755.38;;;25.19;35.69
71344;BME280;59146;43.850;25.948;2023-09-07T07:25:34;101806.31;;;25.61;35.26
71344;BME280;59146;43.850;25.948;2023-09-07T07:28:01;101806.44;;;25.51;35.29
71344;BME280;59146;43.850;25.948;2023-09-07T07:30:28;101804.28;;;25.37;35.83
71344;BME280;59146;43.850;25.948;2023-09-07T07:32:56;101772.66;;;25.07;35.93
71344;BME280;59146;43.850;25.948;2023-09-07T07:35:22;101785.03;;;24.73;36.07
71344;BME280;59146;43.850;25.948;2023-09-07T07:37:49;101804.56;;;24.73;35.85
71344;BME280;59146;43.850;25.948;2023-09-07T07:40:14;101820.56;;;24.83;35.70
71344;BME280;59146;43.850;25.948;2023-09-07T07:42:40;101741.84;;;24.42;36.23
71344;BME280;59146;43.850;25.948;2023-09-07T07:45:06;101768.00;;;25.09;35.91
71344;BME280;59146;43.850;25.948;2023-09-07T07:47:31;101741.28;;;25.68;36.49
71344;BME280;59146;43.850;25.948;2023-09-07T07:49:57;101717.63;;;25.97;34.06
71344;BME280;59146;43.850;25.948;2023-09-07T07:52:22;101737.69;;;26.43;34.12
71344;BME280;59146;43.850;25.948;2023-09-07T07:54:47;101767.50;;;26.48;33.79
71344;BME280;59146;43.850;25.948;2023-09-07T07:57:13;101725.44;;;25.83;34.70
71344;BME280;59146;43.850;25.948;2023-09-07T07:59:38;101800.97;;;26.02;34.55
71344;BME280;59146;43.850;25.948;2023-09-07T08:02:04;101761.09;;;25.50;35.23
71344;BME280;59146;43.850;25.948;2023-09-07T08:04:31;101752.94;;;25.34;35.72
71344;BME280;59146;43.850;25.948;2023-09-07T08:06:57;101725.94;;;25.19;35.54
71344;BME280;59146;43.850;25.948;2023-09-07T08:09:29;101743.13;;;24.91;36.39
71344;BME280;59146;43.850;25.948;2023-09-07T08:11:54;101726.34;;;24.81;36.27
71344;BME280;59146;43.850;25.948;2023-09-07T08:14:21;101746.34;;;24.77;36.95
71344;BME280;59146;43.850;25.948;2023-09-07T08:16:47;101725.84;;;24.68;38.18
71344;BME280;59146;43.850;25.948;2023-09-07T08:19:13;101774.50;;;25.06;37.09
71344;BME280;59146;43.850;25.948;2023-09-07T08:21:39;101780.34;;;25.10;38.26
71344;BME280;59146;43.850;25.948;2023-09-07T08:24:07;101710.00;;;24.66;38.01
71344;BME280;59146;43.850;25.948;2023-09-07T08:26:33;101730.75;;;24.90;39.08
71344;BME280;59146;43.850;25.948;2023-09-07T08:28:58;101715.03;;;24.87;38.72
71344;BME280;59146;43.850;25.948;2023-09-07T08:31:24;101770.97;;;25.06;39.29
71344;BME280;59146;43.850;25.948;2023-09-07T08:33:49;101747.69;;;24.98;39.82
71344;BME280;59146;43.850;25.948;2023-09-07T08:36:20;101775.25;;;25.42;39.22
71344;BME280;59146;43.850;25.948;2023-09-07T08:38:47;101698.19;;;25.20;38.53
71344;BME280;59146;43.850;25.948;2023-09-07T08:41:13;101727.03;;;25.34;39.01
71344;BME280;59146;43.850;25.948;2023-09-07T08:43:44;101726.75;;;25.71;39.44
71344;BME280;59146;43.850;25.948;2023-09-07T08:46:15;101725.63;;;25.81;39.17
71344;BME280;59146;43.850;25.948;2023-09-07T08:48:43;101698.13;;;25.63;39.69
71344;BME280;59146;43.850;25.948;2023-09-07T08:51:10;101769.94;;;26.10;38.53
71344;BME280;59146;43.850;25.948;2023-09-07T08:53:37;101756.25;;;26.37;38.78
71344;BME280;59146;43.850;25.948;2023-09-07T08:56:03;101766.31;;;26.43;38.21
71344;BME280;59146;43.850;25.948;2023-09-07T08:58:29;101719.94;;;26.34;38.83
71344;BME280;59146;43.850;25.948;2023-09-07T09:00:54;101743.88;;;26.52;38.24
71344;BME280;59146;43.850;25.948;2023-09-07T09:03:23;101691.72;;;26.06;39.00
71344;BME280;59146;43.850;25.948;2023-09-07T09:05:50;101687.25;;;26.15;38.71
71344;BME280;59146;43.850;25.948;2023-09-07T09:08:15;101700.31;;;26.10;38.60
71344;BME280;59146;43.850;25.948;2023-09-07T09:10:45;101732.66;;;26.48;39.31
71344;BME280;59146;43.850;25.948;2023-09-07T09:13:11;101676.41;;;26.40;38.83
71344;BME280;59146;43.850;25.948;2023-09-07T09:15:37;101711.41;;;26.55;37.80
71344;BME280;59146;43.850;25.948;2023-09-07T09:18:12;101738.06;;;26.81;37.81
71344;BME280;59146;43.850;25.948;2023-09-07T09:20:38;101660.50;;;26.47;38.52
71344;BME280;59146;43.850;25.948;2023-09-07T09:23:04;101723.50;;;26.91;37.82
71344;BME280;59146;43.850;25.948;2023-09-07T09:25:31;101719.47;;;26.95;37.28
71344;BME280;59146;43.850;25.948;2023-09-07T09:27:56;101671.75;;;26.74;37.08
71344;BME280;59146;43.850;25.948;2023-09-07T09:30:22;101731.31;;;27.17;37.26
71344;BME280;59146;43.850;25.948;2023-09-07T09:32:48;101701.69;;;26.70;36.39
71344;BME280;59146;43.850;25.948;2023-09-07T09:35:16;101650.44;;;26.49;37.77
71344;BME280;59146;43.850;25.948;2023-09-07T09:37:44;101698.31;;;27.16;37.46
71344;BME280;59146;43.850;25.948;2023-09-07T09:40:10;101685.06;;;27.07;36.47
71344;BME280;59146;43.850;25.948;2023-09-07T09:42:36;101695.94;;;27.21;36.99
71344;BME280;59146;43.850;25.948;2023-09-07T09:45:05;101709.59;;;27.59;36.34
71344;BME280;59146;43.850;25.948;2023-09-07T09:47:31;101649.25;;;27.46;35.91
71344;BME280;59146;43.850;25.948;2023-09-07T09:49:57;101707.69;;;27.75;35.50
71344;BME280;59146;43.850;25.948;2023-09-07T09:52:24;101682.91;;;27.57;34.88
71344;BME280;59146;43.850;25.948;2023-09-07T09:54:51;101574.81;;;27.10;34.95
71344;BME280;59146;43.850;25.948;2023-09-07T09:57:17;101651.94;;;27.46;34.57
71344;BME280;59146;43.850;25.948;2023-09-07T09:59:43;101697.00;;;27.98;35.07
71344;BME280;59146;43.850;25.948;2023-09-07T10:02:10;101661.50;;;27.80;34.40
71344;BME280;59146;43.850;25.948;2023-09-07T10:04:36;101634.31;;;27.83;33.91
71344;BME280;59146;43.850;25.948;2023-09-07T10:07:02;101688.63;;;28.23;32.27
71344;BME280;59146;43.850;25.948;2023-09-07T10:09:34;101683.34;;;28.07;32.46
71344;BME280;59146;43.850;25.948;2023-09-07T10:12:01;101668.13;;;28.00;32.04
71344;BME280;59146;43.850;25.948;2023-09-07T10:14:40;101651.94;;;28.30;30.95
71344;BME280;59146;43.850;25.948;2023-09-07T10:17:06;101634.72;;;28.02;29.41
71344;BME280;59146;43.850;25.948;2023-09-07T10:19:32;101645.56;;;28.32;28.63
71344;BME280;59146;43.850;25.948;2023-09-07T10:21:59;101669.06;;;28.07;27.60
71344;BME280;59146;43.850;25.948;2023-09-07T10:24:34;101674.94;;;28.33;30.48
71344;BME280;59146;43.850;25.948;2023-09-07T10:27:07;101713.56;;;28.55;29.06
71344;BME280;59146;43.850;25.948;2023-09-07T10:29:50;101654.75;;;28.37;29.59
71344;BME280;59146;43.850;25.948;2023-09-07T10:32:17;101660.31;;;28.58;29.42
71344;BME280;59146;43.850;25.948;2023-09-07T10:34:43;101634.31;;;28.73;28.71
71344;BME280;59146;43.850;25.948;2023-09-07T10:37:15;101658.59;;;28.65;28.40
71344;BME280;59146;43.850;25.948;2023-09-07T10:39:41;101670.69;;;28.98;27.75
71344;BME280;59146;43.850;25.948;2023-09-07T10:42:29;101638.38;;;28.69;27.04
71344;BME280;59146;43.850;25.948;2023-09-07T10:44:55;101581.78;;;28.48;27.89
71344;BME280;59146;43.850;25.948;2023-09-07T10:47:20;101687.66;;;29.14;27.64
71344;BME280;59146;43.850;25.948;2023-09-07T10:49:47;101614.38;;;28.97;28.57
71344;BME280;59146;43.850;25.948;2023-09-07T10:52:12;101657.91;;;29.30;28.55
71344;BME280;59146;43.850;25.948;2023-09-07T10:54:38;101615.31;;;29.19;29.33
71344;BME280;59146;43.850;25.948;2023-09-07T10:57:12;101601.88;;;29.19;28.33
71344;BME280;59146;43.850;25.948;2023-09-07T10:59:45;101622.94;;;29.30;28.54
71344;BME280;59146;43.850;25.948;2023-09-07T11:02:11;101597.97;;;29.06;28.26
71344;BME280;59146;43.850;25.948;2023-09-07T11:04:36;101587.31;;;28.98;28.66
71344;BME280;59146;43.850;25.948;2023-09-07T11:07:02;101613.66;;;29.18;29.80
71344;BME280;59146;43.850;25.948;2023-09-07T11:09:32;101615.78;;;29.22;30.31
71344;BME280;59146;43.850;25.948;2023-09-07T11:12:04;101615.09;;;29.05;30.82
71344;BME280;59146;43.850;25.948;2023-09-07T11:14:29;101634.59;;;29.22;29.38
71344;BME280;59146;43.850;25.948;2023-09-07T11:16:56;101565.25;;;28.74;28.96
71344;BME280;59146;43.850;25.948;2023-09-07T11:19:21;101597.41;;;28.96;30.42
71344;BME280;59146;43.850;25.948;2023-09-07T11:21:47;101605.94;;;29.15;30.65
71344;BME280;59146;43.850;25.948;2023-09-07T11:24:13;101557.53;;;28.85;31.97
71344;BME280;59146;43.850;25.948;2023-09-07T11:26:45;101611.72;;;29.26;30.28
71344;BME280;59146;43.850;25.948;2023-09-07T11:29:15;101594.53;;;28.98;30.47
71344;BME280;59146;43.850;25.948;2023-09-07T11:31:41;101485.13;;;28.25;29.55
71344;BME280;59146;43.850;25.948;2023-09-07T11:34:14;101547.78;;;28.70;29.42
71344;BME280;59146;43.850;25.948;2023-09-07T11:36:41;101552.34;;;28.69;29.22
71344;BME280;59146;43.850;25.948;2023-09-07T11:39:06;101555.78;;;28.63;29.04
71344;BME280;59146;43.850;25.948;2023-09-07T11:41:43;101606.88;;;28.92;30.13
71344;BME280;59146;43.850;25.948;2023-09-07T11:44:09;101581.38;;;28.88;29.32
71344;BME280;59146;43.850;25.948;2023-09-07T11:46:35;101542.69;;;28.89;29.93
71344;BME280;59146;43.850;25.948;2023-09-07T11:49:00;101594.00;;;29.17;29.70
71344;BME280;59146;43.850;25.948;2023-09-07T11:51:26;101558.47;;;28.92;29.15
71344;BME280;59146;43.850;25.948;2023-09-07T11:53:51;101539.72;;;28.84;28.77
71344;BME280;59146;43.850;25.948;2023-09-07T11:56:16;101532.03;;;28.96;29.59
71344;BME280;59146;43.850;25.948;2023-09-07T11:58:42;101510.72;;;28.80;29.79
71344;BME280;59146;43.850;25.948;2023-09-07T12:01:09;101536.75;;;29.08;29.55
71344;BME280;59146;43.850;25.948;2023-09-07T12:03:34;101515.06;;;28.81;29.11
71344;BME280;59146;43.850;25.948;2023-09-07T12:06:00;101588.94;;;29.14;30.15
71344;BME280;59146;43.850;25.948;2023-09-07T12:08:25;101584.72;;;29.20;29.58
71344;BME280;59146;43.850;25.948;2023-09-07T12:10:51;101597.56;;;29.09;28.45
71344;BME280;59146;43.850;25.948;2023-09-07T12:13:16;101523.44;;;28.71;28.82
71344;BME280;59146;43.850;25.948;2023-09-07T12:15:42;101513.50;;;28.72;29.18
71344;BME280;59146;43.850;25.948;2023-09-07T12:18:07;101572.81;;;29.29;29.40
71344;BME280;59146;43.850;25.948;2023-09-07T12:20:33;101541.84;;;28.89;29.32
71344;BME280;59146;43.850;25.948;2023-09-07T12:23:00;101556.56;;;29.07;28.94
71344;BME280;59146;43.850;25.948;2023-09-07T12:25:27;101525.34;;;28.92;28.99
71344;BME280;59146;43.850;25.948;2023-09-07T12:27:53;101528.13;;;28.98;28.89
71344;BME280;59146;43.850;25.948;2023-09-07T12:30:19;101582.25;;;29.39;29.89
71344;BME280;59146;43.850;25.948;2023-09-07T12:32:46;101560.75;;;29.10;29.19
71344;BME280;59146;43.850;25.948;2023-09-07T12:35:11;101539.53;;;29.00;29.16
71344;BME280;59146;43.850;25.948;2023-09-07T12:37:36;101540.63;;;29.06;29.26